Time;durP1;ratioP1;P1;durP2;ratioP2;P2;SDS_P1;SDS_P2;PMS_P1;PMS_P2;Temp;Humidity;BMP_temperature;BMP_pressure;BME280_temperature;BME280_humidity;BME280_pressure;Samples;Min_cycle;Max_cycle;Signal;HPM_P1;HPM_P2
2022/11/30 02:47:42;;;;;;;16.55;11.55;;;;;;;6.65;85.72;100238.88;1086662;47;20701;-78
2022/11/30 02:48:48;;;;;;;16.70;12.13;;;;;;;6.69;85.57;100243.03;1087519;54;20053;-77
2022/11/30 02:49:57;;;;;;;15.55;10.90;;;;;;;6.80;85.16;100241.38;1088893;39;20780;-77
2022/11/30 02:51:03;;;;;;;15.90;11.65;;;;;;;6.84;84.96;100242.81;1087636;54;20057;-77
2022/11/30 02:52:08;;;;;;;14.35;10.88;;;;;;;6.92;85.24;100242.25;1087991;54;20078;-79
2022/11/30 02:53:12;;;;;;;14.70;10.48;;;;;;;6.96;84.85;100238.38;1088013;54;20046;-78
2022/11/30 02:54:16;;;;;;;15.90;11.40;;;;;;;7.00;84.76;100237.19;1088959;46;20065;-78
2022/11/30 02:55:24;;;;;;;15.63;11.40;;;;;;;7.03;84.69;100243.13;1087945;54;20078;-79
2022/11/30 02:56:28;;;;;;;17.13;12.10;;;;;;;7.08;84.65;100236.63;1087822;47;20063;-78
2022/11/30 02:57:30;;;;;;;15.23;11.55;;;;;;;7.07;84.55;100242.91;1087861;54;20054;-77
2022/11/30 02:58:34;;;;;;;17.45;11.70;;;;;;;7.09;84.68;100243.59;1091917;46;20041;-77
2022/11/30 02:59:37;;;;;;;15.52;11.30;;;;;;;7.09;84.49;100243.59;1088634;46;20057;-77
2022/11/30 03:00:41;;;;;;;16.40;11.73;;;;;;;7.10;84.35;100247.97;1087746;54;20031;-79
2022/11/30 03:01:43;;;;;;;15.32;11.68;;;;;;;7.13;84.53;100237.09;1087769;54;20023;-78
2022/11/30 03:02:50;;;;;;;15.55;11.45;;;;;;;7.15;84.44;100243.16;1087665;54;20037;-78
2022/11/30 03:03:51;;;;;;;17.70;11.98;;;;;;;7.11;84.48;100241.69;1087685;54;20050;-78
2022/11/30 03:04:55;;;;;;;14.48;11.25;;;;;;;7.13;84.42;100245.06;1087351;54;20031;-77
2022/11/30 03:05:57;;;;;;;16.00;11.95;;;;;;;7.12;84.17;100235.41;1087360;54;20061;-77
2022/11/30 03:07:01;;;;;;;15.93;11.70;;;;;;;7.14;84.24;100239.63;1087117;54;20031;-79
2022/11/30 03:08:03;;;;;;;16.52;11.90;;;;;;;7.18;84.36;100240.22;1087290;54;20035;-76
2022/11/30 03:09:07;;;;;;;12.75;10.00;;;;;;;7.20;84.25;100243.63;1087176;54;21206;-76
2022/11/30 03:10:09;;;;;;;14.00;11.13;;;;;;;7.18;84.23;100240.22;1087121;54;20038;-76
2022/11/30 03:11:13;;;;;;;15.65;11.55;;;;;;;7.19;84.06;100244.59;1087096;54;21194;-76
2022/11/30 03:12:15;;;;;;;14.82;11.23;;;;;;;7.23;84.32;100239.88;1087091;54;20046;-75
2022/11/30 03:13:20;;;;;;;15.20;11.82;;;;;;;7.25;83.75;100249.47;1087257;54;20034;-77
2022/11/30 03:14:21;;;;;;;14.23;11.05;;;;;;;7.29;83.83;100242.91;1087180;54;20046;-76
2022/11/30 03:15:25;;;;;;;13.45;10.60;;;;;;;7.32;83.70;100239.19;1087169;54;20035;-76
2022/11/30 03:16:27;;;;;;;14.38;10.75;;;;;;;7.30;83.33;100236.63;1087085;54;20034;-76
2022/11/30 03:17:31;;;;;;;15.85;11.80;;;;;;;7.29;83.68;100242.91;1087156;54;20033;-76
2022/11/30 03:18:35;;;;;;;14.20;11.07;;;;;;;7.31;83.55;100238.34;1087242;54;20031;-76
2022/11/30 03:19:43;;;;;;;14.90;11.23;;;;;;;7.28;83.23;100235.91;1087259;54;20087;-76
2022/11/30 03:20:45;;;;;;;14.43;11.35;;;;;;;7.28;83.31;100245.72;1087146;54;20034;-76
2022/11/30 03:21:49;;;;;;;16.40;12.02;;;;;;;7.26;83.33;100242.31;1087160;54;20035;-76
2022/11/30 03:22:57;;;;;;;16.55;12.15;;;;;;;7.20;83.60;100242.78;1087231;54;20785;-76
2022/11/30 03:24:01;;;;;;;17.65;12.82;;;;;;;7.21;83.34;100247.16;1087288;54;20042;-76
2022/11/30 03:25:03;;;;;;;19.17;13.63;;;;;;;7.13;82.98;100245.06;1087270;54;20042;-76
2022/11/30 03:26:09;;;;;;;18.88;14.00;;;;;;;7.10;83.37;100245.31;1087673;39;20551;-75
2022/11/30 03:27:14;;;;;;;17.13;13.30;;;;;;;7.14;83.65;100244.13;1086978;54;20666;-76
2022/11/30 03:28:27;;;;;;;15.77;12.40;;;;;;;7.17;83.26;100236.75;1087254;54;20035;-77
2022/11/30 03:29:37;;;;;;;17.08;12.32;;;;;;;7.14;83.27;100244.94;1087309;54;20038;-77
2022/11/30 03:30:38;;;;;;;16.13;12.35;;;;;;;7.14;83.42;100239.63;1087209;54;20102;-77
2022/11/30 03:31:42;;;;;;;16.17;12.98;;;;;;;7.12;83.30;100240.72;1087087;54;20030;-76
2022/11/30 03:32:44;;;;;;;18.02;13.70;;;;;;;7.02;83.62;100244.06;1087198;54;20034;-76
2022/11/30 03:33:50;;;;;;;19.38;13.93;;;;;;;6.97;83.18;100246.25;1087170;54;20042;-76
2022/11/30 03:34:52;;;;;;;17.40;12.82;;;;;;;6.95;83.83;100253.50;1086846;54;20038;-77
2022/11/30 03:36:04;;;;;;;17.90;13.55;;;;;;;6.98;83.78;100247.94;1086638;54;20058;-76
2022/11/30 03:37:05;;;;;;;18.73;13.75;;;;;;;6.96;83.76;100246.34;1086914;54;20043;-78
2022/11/30 03:38:09;;;;;;;17.17;12.70;;;;;;;6.97;83.77;100248.91;1087220;54;20057;-78
2022/11/30 03:39:10;;;;;;;18.60;13.82;;;;;;;6.95;83.86;100244.66;1087328;54;20851;-78
2022/11/30 03:40:15;;;;;;;18.58;13.30;;;;;;;6.95;83.69;100248.19;1087194;54;20031;-78
2022/11/30 03:41:16;;;;;;;18.13;13.73;;;;;;;6.95;83.81;100250.84;1086724;54;20057;-78
2022/11/30 03:42:20;;;;;;;20.02;14.45;;;;;;;6.91;83.96;100252.00;1086780;54;20041;-78
2022/11/30 03:43:22;;;;;;;19.40;14.02;;;;;;;6.90;84.08;100255.63;1087104;54;20057;-78
2022/11/30 03:44:26;;;;;;;19.75;14.15;;;;;;;6.86;84.16;100248.88;1087161;54;20033;-78
2022/11/30 03:45:27;;;;;;;18.95;13.63;;;;;;;6.92;83.95;100253.72;1087245;47;20050;-78
2022/11/30 03:46:32;;;;;;;16.63;12.48;;;;;;;6.99;83.93;100249.63;1087044;54;20037;-78
2022/11/30 03:47:34;;;;;;;17.70;13.18;;;;;;;7.02;83.62;100249.41;1087007;54;20035;-78
2022/11/30 03:48:40;;;;;;;17.48;12.43;;;;;;;7.07;83.46;100250.88;1088536;39;20566;-78
2022/11/30 03:49:44;;;;;;;15.63;11.68;;;;;;;7.12;83.31;100254.00;1087089;54;20022;-78
2022/11/30 03:50:49;;;;;;;14.75;10.68;;;;;;;7.17;83.17;100255.34;1087063;54;20037;-78
2022/11/30 03:51:50;;;;;;;15.40;10.27;;;;;;;7.20;83.12;100248.94;1087059;54;20059;-78
2022/11/30 03:52:54;;;;;;;15.13;11.48;;;;;;;7.18;82.78;100254.41;1087042;54;20082;-78
2022/11/30 03:53:56;;;;;;;14.90;11.27;;;;;;;7.18;82.75;100253.53;1087616;47;20038;-78
2022/11/30 03:55:01;;;;;;;14.55;10.88;;;;;;;7.19;82.66;100255.22;1088541;47;20067;-78
2022/11/30 03:56:05;;;;;;;15.70;11.07;;;;;;;7.21;82.86;100260.44;1087046;54;20034;-78
2022/11/30 03:57:09;;;;;;;13.40;10.25;;;;;;;7.24;82.61;100255.75;1086996;54;20030;-77
2022/11/30 03:58:11;;;;;;;13.98;10.20;;;;;;;7.28;82.74;100254.53;1087088;54;20026;-79
2022/11/30 03:59:15;;;;;;;16.20;12.05;;;;;;;7.25;82.39;100252.13;1087083;54;20662;-79
2022/11/30 04:00:19;;;;;;;14.68;10.73;;;;;;;7.29;82.41;100261.53;1092669;39;20578;-78
2022/11/30 04:01:23;;;;;;;14.73;10.95;;;;;;;7.25;82.45;100253.91;1087055;54;20030;-78
2022/11/30 04:02:25;;;;;;;16.05;11.70;;;;;;;7.26;82.55;100255.59;1086912;54;20039;-77
2022/11/30 04:03:29;;;;;;;16.40;10.90;;;;;;;7.28;82.40;100253.69;1087405;47;20115;-78
2022/11/30 04:04:30;;;;;;;15.68;11.13;;;;;;;7.27;82.68;100247.53;1086996;54;21226;-78
2022/11/30 04:05:37;;;;;;;13.93;11.38;;;;;;;7.26;82.55;100256.47;1092216;31;20779;-78
2022/11/30 04:06:39;;;;;;;13.57;10.23;;;;;;;7.29;82.43;100255.38;1087418;47;20616;-78
2022/11/30 04:07:43;;;;;;;17.52;12.38;;;;;;;7.26;82.26;100251.16;1087063;54;20031;-78
2022/11/30 04:08:45;;;;;;;16.55;12.00;;;;;;;7.24;82.31;100260.19;1088444;39;20885;-78
2022/11/30 04:09:49;;;;;;;15.73;10.95;;;;;;;7.27;82.28;100252.00;1087042;54;20030;-78
2022/11/30 04:10:51;;;;;;;15.77;11.40;;;;;;;7.28;82.53;100254.53;1087052;54;20043;-78
2022/11/30 04:11:55;;;;;;;16.10;11.18;;;;;;;7.26;82.39;100253.81;1087058;54;20059;-78
2022/11/30 04:12:57;;;;;;;16.42;11.93;;;;;;;7.24;82.24;100253.06;1087065;54;20019;-78
2022/11/30 04:14:01;;;;;;;16.50;12.43;;;;;;;7.25;82.62;100254.78;1087030;54;20037;-78
2022/11/30 04:15:03;;;;;;;15.30;11.50;;;;;;;7.26;82.14;100251.16;1088703;39;20324;-78
2022/11/30 04:16:09;;;;;;;17.50;12.77;;;;;;;7.20;82.40;100261.41;1087340;54;20038;-78
2022/11/30 04:17:10;;;;;;;15.43;11.35;;;;;;;7.23;82.58;100254.03;1087284;54;20788;-78
2022/11/30 04:18:15;;;;;;;14.60;11.10;;;;;;;7.27;82.21;100252.84;1087420;54;20094;-78
2022/11/30 04:19:16;;;;;;;15.27;11.02;;;;;;;7.30;82.30;100252.59;1088443;46;20027;-78
2022/11/30 04:20:21;;;;;;;16.45;11.38;;;;;;;7.32;82.22;100255.16;1087458;54;20031;-79
2022/11/30 04:21:27;;;;;;;16.30;12.15;;;;;;;7.32;82.10;100256.00;1087419;54;20809;-79
2022/11/30 04:22:29;;;;;;;13.45;10.60;;;;;;;7.30;82.50;100257.91;1087346;54;20722;-79
2022/11/30 04:23:35;;;;;;;15.90;11.70;;;;;;;7.28;82.18;100266.97;1087434;54;20143;-79
2022/11/30 04:24:37;;;;;;;15.75;12.00;;;;;;;7.28;82.37;100259.84;1088003;46;20022;-79
2022/11/30 04:25:43;;;;;;;15.05;11.43;;;;;;;7.33;82.52;100256.81;1087448;54;20075;-79
2022/11/30 04:26:45;;;;;;;16.20;12.02;;;;;;;7.33;82.45;100254.16;1087418;54;20043;-79
2022/11/30 04:27:49;;;;;;;15.15;11.75;;;;;;;7.28;82.25;100259.00;1087384;54;20031;-79
2022/11/30 04:28:50;;;;;;;14.93;11.13;;;;;;;7.31;82.25;100254.28;1088882;39;20665;-79
2022/11/30 04:29:54;;;;;;;14.35;10.90;;;;;;;7.31;82.30;100251.63;1087393;54;20059;-80
2022/11/30 04:30:56;;;;;;;18.67;13.30;;;;;;;7.28;82.53;100254.53;1087381;54;20785;-78
2022/11/30 04:32:00;;;;;;;17.50;13.00;;;;;;;7.29;82.35;100258.88;1087451;54;20022;-79
2022/11/30 04:33:02;;;;;;;15.23;11.38;;;;;;;7.33;82.47;100257.69;1087380;54;21064;-79
2022/11/30 04:34:06;;;;;;;16.33;11.30;;;;;;;7.37;82.17;100260.13;1087458;54;20038;-79
2022/11/30 04:35:10;;;;;;;16.02;11.60;;;;;;;7.39;82.14;100256.38;1087436;54;20031;-78
2022/11/30 04:36:20;;;;;;;15.00;10.18;;;;;;;7.35;82.12;100260.22;1087379;54;20039;-79
2022/11/30 04:37:24;;;;;;;14.82;11.25;;;;;;;7.37;82.11;100255.63;1088076;46;21035;-79
2022/11/30 04:38:29;;;;;;;14.57;11.07;;;;;;;7.37;82.26;100252.97;1087389;54;20065;-78
2022/11/30 04:39:32;;;;;;;14.65;10.95;;;;;;;7.37;82.14;100254.81;1087424;54;20061;-79
2022/11/30 04:40:36;;;;;;;15.32;10.85;;;;;;;7.37;82.08;100260.13;1087488;54;20027;-79
2022/11/30 04:41:39;;;;;;;14.50;10.38;;;;;;;7.41;81.92;100256.25;1087967;46;20041;-77
2022/11/30 04:42:43;;;;;;;13.85;10.52;;;;;;;7.39;82.02;100256.38;1087366;54;20030;-78
2022/11/30 04:43:44;;;;;;;13.77;10.45;;;;;;;7.42;81.89;100255.28;1087377;54;20034;-78
2022/11/30 04:44:48;;;;;;;13.43;10.75;;;;;;;7.41;81.93;100253.56;1087338;54;20098;-78
2022/11/30 04:45:50;;;;;;;14.93;10.50;;;;;;;7.42;81.69;100265.91;1087390;54;20061;-78
2022/11/30 04:46:54;;;;;;;14.68;10.43;;;;;;;7.44;81.75;100253.34;1087289;54;20027;-77
2022/11/30 04:47:56;;;;;;;14.35;10.05;;;;;;;7.44;81.60;100261.31;1087352;54;20035;-78
2022/11/30 04:49:00;;;;;;;13.05;10.18;;;;;;;7.43;81.64;100256.97;1087256;54;20137;-79
2022/11/30 04:50:01;;;;;;;15.02;10.70;;;;;;;7.41;81.64;100256.25;1087378;54;20061;-78
2022/11/30 04:51:07;;;;;;;15.63;11.85;;;;;;;7.37;81.41;100265.44;1087935;46;20082;-77
2022/11/30 04:52:08;;;;;;;15.95;11.70;;;;;;;7.39;81.54;100256.38;1087361;54;20681;-78
2022/11/30 04:53:16;;;;;;;13.57;10.90;;;;;;;7.41;81.47;100256.25;1087302;54;20038;-78
2022/11/30 04:54:18;;;;;;;14.95;10.65;;;;;;;7.42;81.55;100257.94;1087373;54;20057;-78
2022/11/30 04:55:22;;;;;;;17.20;12.15;;;;;;;7.36;81.64;100261.09;1087401;54;20304;-78
2022/11/30 04:56:23;;;;;;;17.77;13.10;;;;;;;7.29;81.64;100256.22;1087356;54;20034;-78
2022/11/30 04:57:28;;;;;;;15.90;11.60;;;;;;;7.27;81.78;100266.16;1087288;54;20026;-78
2022/11/30 04:58:29;;;;;;;18.95;12.48;;;;;;;7.23;81.91;100253.19;1088803;39;21083;-78
2022/11/30 04:59:33;;;;;;;17.85;12.73;;;;;;;7.24;82.05;100262.84;1087361;54;20037;-78
2022/11/30 05:00:35;;;;;;;16.80;12.45;;;;;;;7.27;81.90;100268.81;1087405;54;20034;-79
2022/11/30 05:01:39;;;;;;;14.30;10.57;;;;;;;7.31;81.90;100256.94;1087258;54;20104;-78
2022/11/30 05:02:41;;;;;;;15.93;12.18;;;;;;;7.33;81.64;100254.16;1087322;54;20038;-78
2022/11/30 05:03:45;;;;;;;18.63;12.85;;;;;;;7.30;81.81;100262.41;1087324;54;20105;-78
2022/11/30 05:04:46;;;;;;;15.13;11.38;;;;;;;7.36;81.59;100264.56;1087308;54;20057;-80
2022/11/30 05:05:51;;;;;;;16.90;11.80;;;;;;;7.34;81.60;100256.72;1090099;39;20897;-78
2022/11/30 05:06:52;;;;;;;18.63;12.95;;;;;;;7.26;81.54;100260.94;1087270;54;20038;-78
2022/11/30 05:07:58;;;;;;;17.60;11.80;;;;;;;7.29;81.76;100261.53;1088743;39;20670;-76
2022/11/30 05:09:02;;;;;;;17.02;12.27;;;;;;;7.27;81.64;100260.81;1087226;54;20040;-77
2022/11/30 05:10:08;;;;;;;17.33;12.82;;;;;;;7.21;81.66;100266.59;1087256;54;20066;-76
2022/11/30 05:11:10;;;;;;;19.05;13.93;;;;;;;7.19;81.89;100265.88;1087233;54;20038;-76
2022/11/30 05:12:14;;;;;;;16.20;11.20;;;;;;;7.24;82.16;100263.72;1087230;54;20043;-77
2022/11/30 05:13:15;;;;;;;16.40;12.20;;;;;;;7.23;81.81;100267.34;1087319;54;20749;-76
2022/11/30 05:14:19;;;;;;;15.50;11.98;;;;;;;7.21;82.05;100263.94;1087327;54;20019;-76
2022/11/30 05:15:21;;;;;;;17.67;12.30;;;;;;;7.24;82.00;100266.38;1087262;54;20062;-76
2022/11/30 05:16:25;;;;;;;15.75;12.15;;;;;;;7.26;82.22;100266.25;1087171;54;20232;-77
2022/11/30 05:17:27;;;;;;;16.38;12.05;;;;;;;7.29;81.98;100261.53;1087188;54;20034;-77
2022/11/30 05:18:31;;;;;;;16.30;11.90;;;;;;;7.34;81.77;100262.03;1087660;39;20557;-79
2022/11/30 05:19:32;;;;;;;14.93;10.90;;;;;;;7.37;81.70;100265.44;1087472;54;20015;-79
2022/11/30 05:20:36;;;;;;;16.38;12.63;;;;;;;7.32;81.42;100265.78;1088836;39;20585;-79
2022/11/30 05:21:38;;;;;;;15.20;11.32;;;;;;;7.31;81.62;100264.94;1087381;54;20118;-78
2022/11/30 05:22:42;;;;;;;14.93;11.05;;;;;;;7.35;81.56;100268.19;1089428;39;20857;-79
2022/11/30 05:23:45;;;;;;;18.17;11.02;;;;;;;7.38;81.50;100269.75;1087345;54;20031;-80
2022/11/30 05:24:53;;;;;;;14.95;10.70;;;;;;;7.37;81.57;100268.09;1088625;46;20018;-78
2022/11/30 05:25:55;;;;;;;16.20;11.98;;;;;;;7.34;81.75;100270.03;1087825;46;20042;-79
2022/11/30 05:26:59;;;;;;;16.63;12.35;;;;;;;7.32;81.73;100274.59;1087091;54;20030;-77
2022/11/30 05:28:00;;;;;;;16.35;11.63;;;;;;;7.33;81.57;100267.47;1087335;54;20061;-77
2022/11/30 05:29:05;;;;;;;15.25;10.73;;;;;;;7.30;81.71;100260.56;1087417;54;20029;-78
2022/11/30 05:30:08;;;;;;;15.48;10.95;;;;;;;7.25;81.36;100270.72;1087343;54;20042;-78
2022/11/30 05:31:12;;;;;;;16.08;12.25;;;;;;;7.26;81.70;100264.44;1087311;54;20034;-79
2022/11/30 05:32:14;;;;;;;15.40;10.88;;;;;;;7.28;81.76;100270.47;1087387;54;20042;-79
2022/11/30 05:33:18;;;;;;;17.02;12.00;;;;;;;7.31;81.74;100259.59;1087344;54;20026;-78
2022/11/30 05:34:20;;;;;;;16.83;11.65;;;;;;;7.30;81.77;100265.88;1087474;54;20037;-78
2022/11/30 05:35:24;;;;;;;17.35;11.85;;;;;;;7.26;81.77;100264.44;1091766;46;20030;-78
2022/11/30 05:36:25;;;;;;;17.52;11.18;;;;;;;7.26;81.72;100277.75;1087209;54;20041;-76
2022/11/30 05:37:29;;;;;;;18.95;13.25;;;;;;;7.18;82.04;100280.97;1087121;54;20044;-77
2022/11/30 05:38:31;;;;;;;17.10;11.55;;;;;;;7.20;81.88;100277.38;1087209;54;20038;-78
2022/11/30 05:39:35;;;;;;;16.38;11.70;;;;;;;7.22;82.08;100284.25;1087210;54;20100;-77
2022/11/30 05:40:39;;;;;;;15.18;10.30;;;;;;;7.27;81.84;100278.56;1087268;54;20050;-78
2022/11/30 05:41:45;;;;;;;15.60;11.07;;;;;;;7.29;81.71;100277.50;1087384;54;20042;-80
2022/11/30 05:42:46;;;;;;;13.95;10.43;;;;;;;7.27;81.85;100275.91;1087430;54;20030;-78
2022/11/30 05:43:50;;;;;;;15.90;10.90;;;;;;;7.31;81.66;100280.06;1087228;54;20026;-76
2022/11/30 05:44:52;;;;;;;15.23;10.80;;;;;;;7.34;81.67;100274.47;1087136;54;20061;-79
2022/11/30 05:46:01;;;;;;;15.25;10.57;;;;;;;7.39;81.62;100277.66;1087223;54;20086;-79
2022/11/30 05:47:02;;;;;;;12.68;9.52;;;;;;;7.41;81.54;100274.84;1087272;54;20054;-78
2022/11/30 05:48:07;;;;;;;13.38;9.80;;;;;;;7.45;81.27;100277.16;1087203;54;20046;-79
2022/11/30 05:49:11;;;;;;;13.68;9.55;;;;;;;7.46;81.29;100278.03;1086900;54;20038;-80
2022/11/30 05:50:13;;;;;;;13.57;9.80;;;;;;;7.43;81.23;100283.56;1087704;39;20736;-80
2022/11/30 05:51:20;;;;;;;15.25;10.35;;;;;;;7.46;81.54;100276.19;1087204;54;20035;-80
2022/11/30 05:52:22;;;;;;;15.07;10.18;;;;;;;7.40;81.33;100279.34;1087209;54;20034;-79
2022/11/30 05:53:26;;;;;;;12.93;9.27;;;;;;;7.44;81.39;100277.28;1087409;54;20030;-79
2022/11/30 05:54:30;;;;;;;13.95;9.90;;;;;;;7.46;81.57;100280.69;1087322;54;20045;-78
2022/11/30 05:55:32;;;;;;;14.07;10.23;;;;;;;7.29;81.79;100280.16;1089333;46;20046;-77
2022/11/30 05:56:39;;;;;;;14.68;10.65;;;;;;;7.36;82.08;100283.19;1087175;54;20134;-77
2022/11/30 05:57:40;;;;;;;15.45;10.57;;;;;;;7.40;81.84;100282.00;1087174;54;20046;-76
2022/11/30 05:58:45;;;;;;;13.63;10.45;;;;;;;7.46;81.48;100270.03;1087119;54;20078;-78
2022/11/30 05:59:47;;;;;;;17.25;10.52;;;;;;;7.37;81.65;100271.59;1087269;54;20026;-79
2022/11/30 06:00:51;;;;;;;14.40;10.48;;;;;;;7.45;81.34;100271.00;1087286;54;20062;-77
2022/11/30 06:01:53;;;;;;;12.43;8.93;;;;;;;7.49;81.23;100275.09;1087318;54;20042;-78
2022/11/30 06:02:58;;;;;;;13.10;9.52;;;;;;;7.47;81.34;100277.03;1087367;54;20027;-78
2022/11/30 06:04:03;;;;;;;14.63;9.27;;;;;;;7.53;81.32;100273.91;1087408;54;20030;-77
2022/11/30 06:05:08;;;;;;;12.88;9.15;;;;;;;7.56;81.04;100272.81;1087399;54;20038;-78
2022/11/30 06:06:10;;;;;;;13.65;9.45;;;;;;;7.56;80.98;100275.47;1087372;54;20027;-79
2022/11/30 06:07:15;;;;;;;11.00;7.85;;;;;;;7.61;80.55;100276.81;1090199;46;20030;-80
2022/11/30 06:08:16;;;;;;;12.73;9.10;;;;;;;7.62;80.73;100272.34;1087692;54;20019;-78
2022/11/30 06:09:22;;;;;;;13.68;8.90;;;;;;;7.58;80.60;100276.22;1087480;54;20030;-78
2022/11/30 06:10:24;;;;;;;12.23;9.15;;;;;;;7.51;80.86;100275.84;1088634;46;20057;-80
2022/11/30 06:11:31;;;;;;;12.90;8.75;;;;;;;7.56;80.84;100278.97;1087403;54;20034;-79
2022/11/30 06:12:35;;;;;;;12.32;8.80;;;;;;;7.61;80.84;100274.16;1088800;46;20038;-79
2022/11/30 06:13:41;;;;;;;12.35;9.02;;;;;;;7.62;80.88;100278.50;1088048;46;20021;-80
2022/11/30 06:14:42;;;;;;;12.10;8.45;;;;;;;7.64;80.63;100273.06;1087486;54;20034;-78
2022/11/30 06:15:52;;;;;;;10.50;7.80;;;;;;;7.65;80.12;100280.91;1087437;54;20033;-79
2022/11/30 06:16:54;;;;;;;12.85;9.50;;;;;;;7.61;80.26;100275.94;1088053;46;20042;-78
2022/11/30 06:17:58;;;;;;;11.23;8.30;;;;;;;7.65;80.52;100272.94;1087306;54;20061;-80
2022/11/30 06:19:03;;;;;;;12.55;9.43;;;;;;;7.62;80.35;100272.34;1087267;54;20034;-78
2022/11/30 06:20:09;;;;;;;11.05;8.00;;;;;;;7.67;80.54;100274.63;1088021;46;20103;-78
2022/11/30 06:21:11;;;;;;;12.38;9.13;;;;;;;7.65;80.21;100272.94;1087265;54;20038;-77
2022/11/30 06:22:15;;;;;;;12.43;8.98;;;;;;;7.61;80.04;100273.28;1089744;39;20650;-77
2022/11/30 06:23:17;;;;;;;13.43;9.52;;;;;;;7.59;80.34;100276.09;1087276;54;20050;-78
2022/11/30 06:24:21;;;;;;;14.95;10.13;;;;;;;7.56;80.42;100265.66;1087210;54;20054;-77
2022/11/30 06:25:23;;;;;;;13.98;9.48;;;;;;;7.60;80.15;100274.28;1087180;54;20035;-79
2022/11/30 06:26:27;;;;;;;12.48;9.15;;;;;;;7.59;80.18;100268.09;1087169;54;20062;-77
2022/11/30 06:27:30;;;;;;;11.95;8.60;;;;;;;7.62;80.09;100277.66;1087157;54;20069;-78
2022/11/30 06:28:37;;;;;;;12.27;8.60;;;;;;;7.64;80.29;100279.25;1087292;54;20025;-78
2022/11/30 06:29:39;;;;;;;12.30;8.95;;;;;;;7.64;80.05;100279.25;1088043;46;20027;-77
2022/11/30 06:30:43;;;;;;;12.57;8.45;;;;;;;7.64;80.09;100276.59;1087153;54;20030;-79
2022/11/30 06:31:47;;;;;;;11.45;8.15;;;;;;;7.66;80.28;100281.78;1087123;54;20035;-79
2022/11/30 06:32:50;;;;;;;12.60;9.57;;;;;;;7.60;80.02;100271.63;1087161;54;20038;-78
2022/11/30 06:33:54;;;;;;;13.73;9.30;;;;;;;7.65;80.19;100274.75;1088687;39;20684;-78
2022/11/30 06:34:55;;;;;;;9.88;7.38;;;;;;;7.67;79.83;100275.50;1087240;54;20046;-78
2022/11/30 06:35:59;;;;;;;13.02;8.55;;;;;;;7.68;80.02;100276.31;1087209;54;20030;-78
2022/11/30 06:37:01;;;;;;;11.35;8.52;;;;;;;7.64;79.84;100271.25;1087132;54;20038;-78
2022/11/30 06:38:05;;;;;;;14.57;9.43;;;;;;;7.61;79.81;100279.47;1087065;54;20037;-78
2022/11/30 06:39:08;;;;;;;15.50;9.80;;;;;;;7.58;80.03;100279.72;1087114;54;20061;-77
2022/11/30 06:40:15;;;;;;;14.30;9.60;;;;;;;7.60;79.70;100276.94;1087196;54;20036;-78
2022/11/30 06:41:17;;;;;;;13.95;8.48;;;;;;;7.61;80.04;100278.63;1087126;54;20035;-79
2022/11/30 06:42:21;;;;;;;15.38;9.98;;;;;;;7.58;79.70;100285.03;1087125;54;20030;-78
2022/11/30 06:43:23;;;;;;;12.63;8.90;;;;;;;7.56;80.17;100280.81;1087147;54;21086;-78
2022/11/30 06:44:30;;;;;;;12.48;9.13;;;;;;;7.60;79.72;100279.63;1088615;39;20798;-79
2022/11/30 06:45:31;;;;;;;13.27;9.57;;;;;;;7.61;79.79;100283.94;1088450;46;20019;-78
2022/11/30 06:46:35;;;;;;;11.85;8.38;;;;;;;7.64;79.56;100281.03;1087136;54;20805;-78
2022/11/30 06:47:37;;;;;;;12.65;9.23;;;;;;;7.62;79.90;100283.84;1087153;54;20136;-77
2022/11/30 06:48:41;;;;;;;11.82;8.23;;;;;;;7.68;79.55;100284.31;1089099;39;20646;-77
2022/11/30 06:49:42;;;;;;;11.20;7.82;;;;;;;7.67;79.70;100275.50;1087178;54;20042;-77
2022/11/30 06:50:46;;;;;;;13.15;8.85;;;;;;;7.68;79.63;100284.31;1088656;39;20689;-78
2022/11/30 06:51:50;;;;;;;13.02;8.75;;;;;;;7.64;79.39;100283.72;1087087;54;20046;-80
2022/11/30 06:52:52;;;;;;;13.27;8.93;;;;;;;7.59;79.70;100278.75;1087189;54;20038;-78
2022/11/30 06:53:56;;;;;;;16.60;10.30;;;;;;;7.48;79.98;100284.03;1087153;54;20030;-78
2022/11/30 06:54:57;;;;;;;17.05;10.68;;;;;;;7.46;80.27;100288.66;1089613;39;21052;-79
2022/11/30 06:56:05;;;;;;;14.43;10.52;;;;;;;7.44;80.30;100287.94;1087175;54;20049;-79
2022/11/30 06:57:07;;;;;;;15.68;10.43;;;;;;;7.44;80.10;100285.28;1087101;54;20114;-78
2022/11/30 06:58:12;;;;;;;15.23;10.93;;;;;;;7.39;80.11;100282.97;1087242;54;20041;-78
2022/11/30 06:59:16;;;;;;;14.45;10.68;;;;;;;7.41;80.40;100290.81;1094073;31;20780;-79
2022/11/30 07:00:20;;;;;;;15.82;9.95;;;;;;;7.43;80.00;100295.03;1087115;54;20061;-78
2022/11/30 07:01:25;;;;;;;14.45;10.07;;;;;;;7.34;80.09;100285.97;1087151;54;20030;-79
2022/11/30 07:02:26;;;;;;;16.52;11.43;;;;;;;7.36;80.35;100293.00;1087171;54;20031;-78
2022/11/30 07:03:30;;;;;;;14.73;10.80;;;;;;;7.33;80.29;100292.25;1089192;39;20677;-78
2022/11/30 07:04:32;;;;;;;17.75;11.93;;;;;;;7.36;80.34;100291.16;1087121;54;20078;-78
2022/11/30 07:05:42;;;;;;;16.30;11.07;;;;;;;7.31;80.39;100296.84;1087150;54;20780;-78
2022/11/30 07:06:44;;;;;;;15.93;10.82;;;;;;;7.32;80.58;100292.38;1087085;54;20046;-79
2022/11/30 07:07:48;;;;;;;12.60;9.18;;;;;;;7.40;80.53;100291.78;1088356;39;20708;-77
2022/11/30 07:08:49;;;;;;;15.85;9.90;;;;;;;7.41;80.38;100291.69;1087133;54;20103;-80
2022/11/30 07:09:53;;;;;;;15.38;10.63;;;;;;;7.30;80.37;100289.81;1087103;54;20030;-77
2022/11/30 07:10:57;;;;;;;15.02;10.90;;;;;;;7.30;80.86;100295.16;1087122;54;20057;-77
2022/11/30 07:11:59;;;;;;;14.65;9.95;;;;;;;7.31;80.46;100291.53;1087047;54;20054;-77
2022/11/30 07:13:03;;;;;;;15.63;10.45;;;;;;;7.30;80.50;100297.81;1087080;54;20736;-78
2022/11/30 07:14:07;;;;;;;13.52;9.75;;;;;;;7.29;80.74;100293.44;1087091;54;20057;-77
2022/11/30 07:15:10;;;;;;;16.13;10.93;;;;;;;7.26;80.79;100301.69;1087116;54;20042;-79
2022/11/30 07:16:16;;;;;;;16.83;11.30;;;;;;;7.24;80.75;100300.94;1087103;54;20034;-79
2022/11/30 07:17:18;;;;;;;15.10;10.25;;;;;;;7.29;80.83;100297.94;1086967;54;20019;-78
2022/11/30 07:18:22;;;;;;;14.93;10.75;;;;;;;7.27;80.63;100292.75;1087150;54;20053;-79
2022/11/30 07:19:26;;;;;;;15.90;11.18;;;;;;;7.23;80.57;100288.59;1087081;54;20058;-77
2022/11/30 07:20:27;;;;;;;15.00;10.45;;;;;;;7.28;80.74;100289.09;1087152;54;20038;-78
2022/11/30 07:21:31;;;;;;;15.73;11.30;;;;;;;7.24;80.76;100297.41;1087123;54;20027;-78
2022/11/30 07:22:33;;;;;;;15.38;11.23;;;;;;;7.27;80.87;100292.75;1087183;47;20046;-78
2022/11/30 07:26:10;;;;;;;15.48;10.48;;;;;;;7.25;80.78;100294.66;1087155;54;20034;-79
2022/11/30 07:27:12;;;;;;;15.52;10.52;;;;;;;7.28;80.51;100290.91;1087010;54;20819;-78
2022/11/30 07:28:16;;;;;;;16.65;11.00;;;;;;;7.26;80.64;100296.38;1087320;47;21168;-79
2022/11/30 07:29:18;;;;;;;16.25;11.73;;;;;;;7.26;80.64;100299.03;1089583;39;20336;-78
2022/11/30 07:30:22;;;;;;;17.48;12.23;;;;;;;7.25;80.94;100299.13;1087145;54;20031;-78
2022/11/30 07:31:32;;;;;;;16.92;10.93;;;;;;;7.24;80.64;100295.63;1087015;54;20119;-79
2022/11/30 07:32:33;;;;;;;16.17;11.80;;;;;;;7.23;80.83;100299.25;1087080;54;20037;-78
2022/11/30 07:33:38;;;;;;;16.60;12.48;;;;;;;7.32;80.82;100297.72;1087074;54;20119;-78
2022/11/30 07:34:42;;;;;;;15.98;11.30;;;;;;;7.26;80.53;100293.69;1087066;54;20059;-78
2022/11/30 07:35:43;;;;;;;14.07;9.90;;;;;;;7.35;80.88;100294.78;1087106;54;20057;-78
2022/11/30 07:36:48;;;;;;;16.52;10.45;;;;;;;7.33;80.49;100289.59;1087060;54;20046;-78
2022/11/30 07:37:53;;;;;;;15.60;10.70;;;;;;;7.31;80.72;100291.53;1087096;54;20042;-78
2022/11/30 07:38:57;;;;;;;19.00;11.63;;;;;;;7.26;80.66;100299.03;1087074;54;20788;-78
2022/11/30 07:40:02;;;;;;;15.38;11.55;;;;;;;7.30;80.63;100294.31;1087067;54;20054;-77
2022/11/30 07:41:07;;;;;;;14.65;10.93;;;;;;;7.31;80.95;100299.50;1087861;47;20030;-78
2022/11/30 07:42:08;;;;;;;16.15;11.43;;;;;;;7.27;80.97;100306.03;1087145;54;20038;-78
2022/11/30 07:43:12;;;;;;;15.55;11.45;;;;;;;7.29;81.07;100288.13;1087158;54;20042;-77